createdAt,value
2022-08-18T00:01:06.243Z,6.40
2022-08-18T00:03:53.270Z,6.75
2022-08-18T00:06:20.416Z,5.93
2022-08-18T00:08:47.187Z,6.07
2022-08-18T00:11:13.939Z,6.18
2022-08-18T00:13:41.393Z,6.20
2022-08-18T00:16:08.055Z,6.00
2022-08-18T00:18:34.667Z,6.25
2022-08-18T00:21:02.261Z,6.22
2022-08-18T00:23:29.977Z,6.15
2022-08-18T00:25:59.595Z,6.40
2022-08-18T00:28:26.527Z,6.47
2022-08-18T00:30:53.834Z,6.68
2022-08-18T00:33:21.164Z,6.78
2022-08-18T00:35:47.921Z,6.60
2022-08-18T00:38:24.971Z,6.88
2022-08-18T00:40:54.602Z,7.10
2022-08-18T00:43:45.137Z,7.00
2022-08-18T00:46:18.294Z,6.88
2022-08-18T00:48:48.626Z,6.90
2022-08-18T00:51:29.160Z,6.97
2022-08-18T00:53:55.939Z,7.15
2022-08-18T00:56:28.574Z,7.70
2022-08-18T00:59:02.984Z,6.88
2022-08-18T01:01:32.925Z,7.60
2022-08-18T01:04:12.510Z,8.07
2022-08-18T01:06:44.898Z,7.70
2022-08-18T01:09:11.996Z,7.95
2022-08-18T01:11:39.401Z,8.20
2022-08-18T01:14:09.039Z,7.80
2022-08-18T01:16:57.349Z,7.65
2022-08-18T01:19:45.020Z,8.00
2022-08-18T01:22:21.371Z,8.07
2022-08-18T01:25:23.556Z,7.85
2022-08-18T01:27:54.186Z,7.30
2022-08-18T01:30:28.053Z,7.68
2022-08-18T01:32:55.359Z,7.53
2022-08-18T01:35:25.638Z,7.68
2022-08-18T01:37:54.037Z,7.40
2022-08-18T01:41:21.928Z,7.60
2022-08-18T01:43:10.361Z,7.28
2022-08-18T01:45:37.365Z,7.57
2022-08-18T01:48:04.933Z,7.70
2022-08-18T01:50:35.212Z,7.53
2022-08-18T01:53:05.437Z,7.43
2022-08-18T01:55:37.045Z,7.55
2022-08-18T01:58:04.775Z,7.60
2022-08-18T02:00:32.453Z,7.70
2022-08-18T02:03:02.603Z,7.93
2022-08-18T02:05:38.709Z,7.72
2022-08-18T02:08:07.192Z,7.93
2022-08-18T02:10:37.921Z,7.70
2022-08-18T02:13:05.357Z,8.20
2022-08-18T02:15:34.895Z,8.07
2022-08-18T02:18:01.787Z,7.78
2022-08-18T02:20:28.648Z,8.07
2022-08-18T02:22:55.307Z,8.43
2022-08-18T02:25:23.053Z,7.90
2022-08-18T02:27:50.436Z,8.18
2022-08-18T02:30:18.782Z,8.70
2022-08-18T02:32:45.525Z,8.25
2022-08-18T02:35:12.572Z,8.23
2022-08-18T02:37:42.192Z,8.13
2022-08-18T02:40:15.103Z,8.13
2022-08-18T02:42:43.765Z,8.32
2022-08-18T02:45:11.180Z,8.35
2022-08-18T02:47:37.789Z,8.38
2022-08-18T02:50:04.976Z,8.88
2022-08-18T02:52:34.538Z,9.00
2022-08-18T02:55:04.561Z,7.95
2022-08-18T02:57:32.206Z,7.88
2022-08-18T03:00:00.241Z,8.05
2022-08-18T03:02:26.950Z,8.32
2022-08-18T03:04:53.749Z,8.00
2022-08-18T03:07:20.440Z,8.73
2022-08-18T03:09:47.087Z,8.73
2022-08-18T03:12:13.687Z,12.48
2022-08-18T03:14:40.306Z,19.58
2022-08-18T03:17:09.022Z,32.23
2022-08-18T03:19:36.033Z,58.42
2022-08-18T03:22:03.569Z,100.18
2022-08-18T03:24:32.319Z,104.65
2022-08-18T03:27:01.624Z,113.57
2022-08-18T03:29:32.518Z,182.73
2022-08-18T03:32:04.038Z,202.03
2022-08-18T03:34:31.647Z,212.90
2022-08-18T03:36:58.835Z,225.90
2022-08-18T03:39:27.961Z,237.60
2022-08-18T03:41:58.353Z,245.77
2022-08-18T03:44:32.402Z,261.43
2022-08-18T03:47:00.970Z,266.93
2022-08-18T03:49:27.917Z,272.95
2022-08-18T03:51:55.568Z,272.92
2022-08-18T03:54:22.979Z,270.02
2022-08-18T03:56:49.849Z,268.15
2022-08-18T03:59:22.617Z,275.50
2022-08-18T04:01:51.591Z,269.05
2022-08-18T04:04:20.876Z,265.65
2022-08-18T04:06:54.847Z,262.13
2022-08-18T04:09:22.926Z,262.33
2022-08-18T04:11:49.691Z,256.58
2022-08-18T04:14:19.210Z,255.93
2022-08-18T04:16:46.934Z,256.50
2022-08-18T04:19:14.194Z,242.73
2022-08-18T04:21:53.721Z,231.82
2022-08-18T04:24:21.206Z,238.57
2022-08-18T04:26:48.664Z,244.40
2022-08-18T04:29:17.745Z,251.93
2022-08-18T04:31:44.687Z,249.55
2022-08-18T04:34:12.418Z,245.98
2022-08-18T04:36:40.110Z,237.93
2022-08-18T04:39:08.951Z,235.85
2022-08-18T04:41:39.763Z,230.70
2022-08-18T04:44:08.832Z,222.63
2022-08-18T04:46:47.797Z,218.70
2022-08-18T04:49:16.212Z,210.45
2022-08-18T04:52:34.112Z,205.50
2022-08-18T04:54:57.039Z,198.53
2022-08-18T04:57:24.048Z,198.75
2022-08-18T04:59:52.429Z,200.60
2022-08-18T05:02:21.100Z,189.05
2022-08-18T05:04:48.086Z,174.17
2022-08-18T05:07:22.488Z,169.07
2022-08-18T05:09:52.408Z,170.50
2022-08-18T05:12:28.883Z,174.73
2022-08-18T05:14:58.019Z,206.07
2022-08-18T05:17:29.968Z,215.98
2022-08-18T05:19:58.956Z,203.77
2022-08-18T05:22:30.421Z,214.32
2022-08-18T05:24:58.277Z,206.85
2022-08-18T05:27:25.126Z,200.48
2022-08-18T05:29:51.999Z,208.02
2022-08-18T05:32:37.248Z,194.88
2022-08-18T05:35:12.104Z,208.48
2022-08-18T05:37:48.075Z,199.50
2022-08-18T05:40:15.515Z,208.63
2022-08-18T05:42:45.625Z,208.07
2022-08-18T05:45:16.910Z,212.98
2022-08-18T05:47:43.683Z,219.52
2022-08-18T05:50:18.494Z,223.45
2022-08-18T05:53:13.305Z,237.18
2022-08-18T05:56:12.698Z,240.73
2022-08-18T05:58:45.966Z,249.15
2022-08-18T06:01:18.456Z,258.00
2022-08-18T06:04:23.716Z,255.27
2022-08-18T06:06:52.968Z,246.63
2022-08-18T06:09:36.782Z,246.52
2022-08-18T06:12:38.205Z,246.85
2022-08-18T06:15:24.634Z,242.83
2022-08-18T06:17:59.911Z,245.55
2022-08-18T06:21:04.939Z,242.73
2022-08-18T06:24:22.297Z,236.25
2022-08-18T06:27:10.207Z,257.17
2022-08-18T06:29:39.678Z,272.67
2022-08-18T06:32:28.356Z,278.17
2022-08-18T06:35:11.738Z,276.75
2022-08-18T06:38:09.083Z,272.50
2022-08-18T06:40:38.210Z,275.67
2022-08-18T06:43:10.070Z,251.73
2022-08-18T06:45:41.895Z,263.17
2022-08-18T06:48:43.979Z,290.45
2022-08-18T06:51:15.283Z,289.77
2022-08-18T06:53:54.317Z,284.13
2022-08-18T06:56:41.562Z,282.85
2022-08-18T06:59:26.150Z,284.00
2022-08-18T07:02:21.771Z,291.70
2022-08-18T07:05:20.490Z,286.15
2022-08-18T07:08:12.291Z,273.48
2022-08-18T07:10:51.926Z,275.58
2022-08-18T07:13:31.019Z,277.53
2022-08-18T07:16:34.488Z,291.40
2022-08-18T07:19:13.012Z,283.52
2022-08-18T07:21:47.699Z,275.48
2022-08-18T07:24:27.340Z,279.25
2022-08-18T07:27:07.956Z,256.00
2022-08-18T07:29:57.610Z,240.80
2022-08-18T07:32:30.346Z,265.13
2022-08-18T07:35:00.684Z,282.80
2022-08-18T07:37:56.334Z,270.35
2022-08-18T07:40:38.382Z,271.88
2022-08-18T07:43:24.033Z,248.50
2022-08-18T07:45:56.032Z,225.52
2022-08-18T07:48:40.851Z,209.07
2022-08-18T07:51:24.097Z,191.93
2022-08-18T07:54:01.901Z,182.57
2022-08-18T07:57:06.824Z,193.52
2022-08-18T07:59:59.688Z,189.35
2022-08-18T08:02:54.009Z,181.25
2022-08-18T08:05:56.400Z,175.23
2022-08-18T08:08:35.768Z,182.07
2022-08-18T08:11:37.547Z,178.30
2022-08-18T08:14:04.224Z,185.68
2022-08-18T08:16:44.495Z,215.30
2022-08-18T08:19:14.158Z,217.00
2022-08-18T08:21:52.867Z,200.33
2022-08-18T08:24:39.622Z,179.77
2022-08-18T08:27:51.458Z,176.20
2022-08-18T08:30:21.552Z,174.60
2022-08-18T08:33:17.565Z,189.95
2022-08-18T08:36:05.724Z,163.05
2022-08-18T08:38:47.739Z,184.25
2022-08-18T08:41:26.649Z,158.63
2022-08-18T08:44:06.392Z,137.68
2022-08-18T08:46:47.577Z,154.98
2022-08-18T08:49:42.631Z,134.63
2022-08-18T08:52:24.840Z,117.20
2022-08-18T08:55:03.180Z,109.22
2022-08-18T08:57:39.211Z,150.57
2022-08-18T09:00:09.090Z,97.95
2022-08-18T09:02:58.756Z,90.28
2022-08-18T09:05:29.871Z,100.15
2022-08-18T09:08:28.396Z,72.28
2022-08-18T09:11:12.196Z,71.10
2022-08-18T09:13:44.597Z,69.68
2022-08-18T09:16:41.409Z,65.22
2022-08-18T09:19:45.562Z,67.78
2022-08-18T09:22:24.629Z,54.33
2022-08-18T09:24:54.884Z,55.95
2022-08-18T09:28:11.803Z,79.55
2022-08-18T09:31:01.664Z,58.30
2022-08-18T09:34:21.429Z,65.90
2022-08-18T09:36:58.036Z,64.85
2022-08-18T09:39:56.636Z,66.47
2022-08-18T09:42:50.609Z,41.45
2022-08-18T09:45:34.378Z,48.42
2022-08-18T09:51:33.023Z,26.05
2022-08-18T09:54:20.850Z,24.27
2022-08-18T09:56:54.431Z,25.33
2022-08-18T09:59:35.168Z,19.20
2022-08-18T10:02:24.199Z,18.60
2022-08-18T10:05:20.436Z,8.85
2022-08-18T10:07:56.188Z,8.00
2022-08-18T10:14:02.860Z,7.93
2022-08-18T10:17:21.683Z,8.37
2022-08-18T10:20:04.718Z,8.55
2022-08-18T10:22:47.886Z,8.38
2022-08-18T10:25:46.446Z,8.13
2022-08-18T10:31:56.164Z,8.30
2022-08-18T10:34:51.947Z,7.85
2022-08-18T10:37:32.295Z,8.02
2022-08-18T10:40:08.166Z,7.90
2022-08-18T10:42:47.620Z,7.05
2022-08-18T10:45:28.311Z,7.90
2022-08-18T10:48:16.749Z,7.78
2022-08-18T10:51:05.471Z,9.45
2022-08-18T10:53:59.426Z,8.63
2022-08-18T10:56:33.755Z,8.70
2022-08-18T10:59:18.973Z,8.23
2022-08-18T11:02:30.940Z,8.10
2022-08-18T11:04:59.958Z,7.40
2022-08-18T11:07:34.735Z,7.70
2022-08-18T11:10:29.813Z,7.55
2022-08-18T11:13:24.472Z,7.97
2022-08-18T11:16:10.330Z,6.90
2022-08-18T11:18:43.168Z,6.97
2022-08-18T11:24:44.698Z,6.97
2022-08-18T11:27:22.727Z,6.75
2022-08-18T11:29:51.488Z,7.07
2022-08-18T11:32:32.773Z,6.38
2022-08-18T11:35:27.739Z,6.73
2022-08-18T11:38:01.395Z,6.70
2022-08-18T11:41:10.716Z,6.97
2022-08-18T11:43:40.752Z,6.82
2022-08-18T11:46:28.054Z,6.70
2022-08-18T11:48:57.253Z,6.45
2022-08-18T11:51:32.162Z,6.35
2022-08-18T11:54:12.731Z,6.55
2022-08-18T11:56:39.495Z,6.10
2022-08-18T11:59:07.747Z,6.22
2022-08-18T12:01:42.177Z,6.57
2022-08-18T12:04:37.603Z,6.47
2022-08-18T12:07:10.912Z,6.40
2022-08-18T12:10:19.449Z,6.97
2022-08-18T12:12:48.603Z,6.00
2022-08-18T12:15:24.094Z,6.47
2022-08-18T12:17:54.113Z,6.88
2022-08-18T12:20:21.865Z,6.40
2022-08-18T12:22:50.163Z,7.07
2022-08-18T12:25:25.381Z,6.10
2022-08-18T12:27:55.114Z,6.70
2022-08-18T12:30:27.471Z,7.13
2022-08-18T12:32:56.093Z,6.75
2022-08-18T12:35:32.784Z,6.20
2022-08-18T12:40:51.080Z,7.32
2022-08-18T12:43:18.413Z,6.72
2022-08-18T12:45:48.624Z,5.82
2022-08-18T12:48:15.471Z,6.18
2022-08-18T12:50:54.301Z,5.63
2022-08-18T12:53:30.709Z,6.07
2022-08-18T12:56:22.795Z,5.97
2022-08-18T12:58:52.786Z,5.30
2022-08-18T13:01:20.260Z,5.20
2022-08-18T13:04:11.011Z,5.93
2022-08-18T13:06:45.384Z,5.03
2022-08-18T13:09:34.882Z,5.83
2022-08-18T13:12:16.147Z,6.03
2022-08-18T13:14:43.655Z,6.47
2022-08-18T13:17:15.273Z,5.50
2022-08-18T13:19:57.699Z,5.75
2022-08-18T13:22:32.875Z,5.80
2022-08-18T13:25:01.801Z,5.60
2022-08-18T13:27:33.145Z,5.80
2022-08-18T13:30:16.701Z,6.00
2022-08-18T13:32:58.917Z,6.30
2022-08-18T13:35:29.792Z,6.10
2022-08-18T13:38:06.529Z,6.25
2022-08-18T13:40:46.980Z,6.35
2022-08-18T13:43:16.094Z,6.28
2022-08-18T13:45:46.893Z,6.40
2022-08-18T13:48:19.467Z,6.03
2022-08-18T13:50:46.520Z,6.87
2022-08-18T13:53:16.399Z,6.63
2022-08-18T13:55:43.483Z,6.43
2022-08-18T13:58:17.587Z,6.15
2022-08-18T14:00:52.343Z,6.95
2022-08-18T14:03:42.408Z,6.73
2022-08-18T14:06:13.230Z,6.85
2022-08-18T14:08:40.958Z,7.00
2022-08-18T14:11:09.078Z,6.30
2022-08-18T14:13:38.143Z,7.07
2022-08-18T14:16:10.501Z,6.40
2022-08-18T14:18:39.100Z,6.35
2022-08-18T14:21:24.940Z,7.20
2022-08-18T14:24:14.530Z,7.47
2022-08-18T14:26:50.196Z,6.20
2022-08-18T14:29:46.294Z,6.57
2022-08-18T14:32:06.627Z,6.68
2022-08-18T14:34:33.410Z,7.10
2022-08-18T14:37:00.031Z,6.57
2022-08-18T14:39:28.811Z,6.22
2022-08-18T14:41:58.571Z,6.80
2022-08-18T14:44:32.354Z,6.82
2022-08-18T14:47:02.425Z,6.40
2022-08-18T14:49:31.548Z,6.85
2022-08-18T14:52:01.336Z,6.57
2022-08-18T14:54:30.601Z,6.43
2022-08-18T14:57:01.701Z,6.78
2022-08-18T14:59:30.990Z,6.40
2022-08-18T15:02:06.215Z,6.00
2022-08-18T15:04:39.273Z,6.68
2022-08-18T15:07:25.648Z,7.30
2022-08-18T15:10:14.466Z,6.43
2022-08-18T15:12:41.990Z,6.93
2022-08-18T15:15:12.384Z,6.50
2022-08-18T15:17:44.584Z,7.05
2022-08-18T15:20:17.356Z,6.97
2022-08-18T15:23:04.762Z,6.60
2022-08-18T15:25:47.027Z,6.57
2022-08-18T15:28:26.227Z,6.63
2022-08-18T15:33:42.812Z,6.13
2022-08-18T15:36:10.253Z,6.32
2022-08-18T15:38:37.201Z,6.33
2022-08-18T15:41:06.358Z,6.50
2022-08-18T15:43:39.931Z,6.53
2022-08-18T15:46:14.056Z,7.18
2022-08-18T15:48:43.678Z,6.93
2022-08-18T15:51:11.927Z,7.67
2022-08-18T15:53:44.872Z,7.43
2022-08-18T15:56:21.929Z,7.47
2022-08-18T15:58:52.663Z,7.40
2022-08-18T16:01:32.410Z,6.78
2022-08-18T16:04:01.256Z,6.70
2022-08-18T16:06:32.429Z,7.28
2022-08-18T16:09:01.090Z,7.18
2022-08-18T16:11:29.803Z,7.28
2022-08-18T16:13:58.990Z,6.97
2022-08-18T16:16:35.781Z,7.13
2022-08-18T16:19:07.034Z,7.60
2022-08-18T16:21:40.414Z,7.20
2022-08-18T16:24:10.627Z,8.38
2022-08-18T16:26:41.472Z,7.10
2022-08-18T16:29:08.107Z,7.90
2022-08-18T16:31:34.751Z,7.50
2022-08-18T16:34:01.490Z,7.75
2022-08-18T16:36:28.289Z,8.00
2022-08-18T16:38:58.048Z,7.50
2022-08-18T16:41:26.330Z,7.53
2022-08-18T16:43:52.998Z,7.05
2022-08-18T16:46:26.480Z,7.37
2022-08-18T16:48:55.185Z,7.57
2022-08-18T16:51:25.449Z,7.47
2022-08-18T16:53:53.375Z,7.38
2022-08-18T16:56:26.614Z,7.35
2022-08-18T16:59:12.549Z,6.88
2022-08-18T17:01:58.887Z,7.72
2022-08-18T17:04:33.467Z,7.65
2022-08-18T17:07:04.999Z,8.10
2022-08-18T17:09:33.730Z,6.82
2022-08-18T17:12:01.238Z,7.93
2022-08-18T17:14:30.601Z,7.68
2022-08-18T17:16:58.621Z,7.27
2022-08-18T17:19:33.671Z,7.70
2022-08-18T17:22:02.277Z,7.47
2022-08-18T17:24:32.021Z,7.93
2022-08-18T17:27:26.535Z,7.30
2022-08-18T17:30:03.244Z,7.18
2022-08-18T17:32:50.185Z,7.47
2022-08-18T17:35:28.628Z,7.22
2022-08-18T17:38:57.144Z,7.20
2022-08-18T17:41:25.425Z,7.07
2022-08-18T17:43:55.662Z,7.20
2022-08-18T17:46:29.770Z,7.68
2022-08-18T17:49:10.054Z,6.93
2022-08-18T17:51:44.372Z,7.10
2022-08-18T17:54:26.720Z,6.95
2022-08-18T17:57:04.324Z,6.53
2022-08-18T18:00:17.291Z,7.03
2022-08-18T18:02:45.665Z,6.50
2022-08-18T18:05:20.738Z,6.93
2022-08-18T18:07:50.479Z,7.03
2022-08-18T18:10:23.199Z,6.60
2022-08-18T18:13:13.333Z,7.80
2022-08-18T18:15:49.156Z,7.60
2022-08-18T18:18:24.932Z,6.65
2022-08-18T18:21:22.265Z,7.15
2022-08-18T18:24:10.347Z,8.00
2022-08-18T18:26:44.877Z,8.10
2022-08-18T18:29:28.802Z,7.53
2022-08-18T18:32:01.938Z,7.82
2022-08-18T18:34:39.891Z,8.23
2022-08-18T18:37:28.965Z,9.30
2022-08-18T18:39:58.983Z,10.38
2022-08-18T18:42:29.645Z,8.80
2022-08-18T18:45:02.449Z,8.27
2022-08-18T18:47:50.078Z,8.43
2022-08-18T18:50:52.886Z,8.10
2022-08-18T18:53:32.794Z,8.63
2022-08-18T18:56:11.430Z,8.73
2022-08-18T18:58:51.408Z,7.85
2022-08-18T19:01:32.088Z,8.10
2022-08-18T19:04:19.223Z,7.80
2022-08-18T19:07:00.159Z,8.40
2022-08-18T19:09:38.201Z,8.40
2022-08-18T19:12:23.408Z,8.20
2022-08-18T19:15:00.833Z,7.88
2022-08-18T19:17:35.727Z,8.23
2022-08-18T19:20:17.388Z,8.25
2022-08-18T19:22:57.220Z,8.63
2022-08-18T19:25:29.763Z,8.25
2022-08-18T19:28:26.954Z,8.82
2022-08-18T19:30:58.381Z,8.82
2022-08-18T19:33:43.569Z,9.55
2022-08-18T19:36:21.948Z,8.90
2022-08-18T19:39:04.666Z,9.40
2022-08-18T19:41:47.918Z,9.50
2022-08-18T19:44:24.406Z,10.05
2022-08-18T19:46:54.598Z,10.30
2022-08-18T19:49:36.480Z,9.85
2022-08-18T19:52:47.910Z,10.70
2022-08-18T19:55:46.205Z,10.85
2022-08-18T19:58:22.741Z,11.43
2022-08-18T20:00:57.182Z,12.73
2022-08-18T20:03:52.516Z,15.68
2022-08-18T20:06:40.647Z,17.70
2022-08-18T20:09:32.723Z,19.65
2022-08-18T20:12:14.227Z,24.02
2022-08-18T20:14:49.001Z,30.90
2022-08-18T20:17:24.610Z,34.17
2022-08-18T20:20:15.425Z,49.40
2022-08-18T20:22:44.518Z,61.55
2022-08-18T20:25:19.992Z,73.93
2022-08-18T20:28:12.720Z,80.45
2022-08-18T20:30:52.715Z,104.68
2022-08-18T20:33:25.818Z,123.32
2022-08-18T20:36:08.125Z,136.18
2022-08-18T20:38:35.313Z,149.52
2022-08-18T20:41:27.592Z,161.98
2022-08-18T20:43:58.666Z,166.65
2022-08-18T20:46:44.656Z,173.48
2022-08-18T20:49:45.794Z,174.00
2022-08-18T20:52:37.819Z,175.43
2022-08-18T20:55:30.663Z,184.70
2022-08-18T20:58:08.264Z,188.43
2022-08-18T21:00:40.482Z,186.20
2022-08-18T21:03:13.060Z,184.07
2022-08-18T21:05:43.650Z,191.57
2022-08-18T21:08:16.690Z,183.03
2022-08-18T21:10:57.882Z,187.57
2022-08-18T21:13:40.509Z,180.57
2022-08-18T21:16:13.023Z,185.53
2022-08-18T21:18:55.247Z,183.45
2022-08-18T21:21:29.809Z,180.10
2022-08-18T21:24:02.708Z,185.13
2022-08-18T21:26:34.439Z,191.63
2022-08-18T21:29:11.209Z,197.57
2022-08-18T21:31:49.942Z,192.73
2022-08-18T21:34:29.411Z,201.02
2022-08-18T21:37:08.580Z,210.13
2022-08-18T21:39:47.989Z,218.50
2022-08-18T21:42:21.010Z,223.57
2022-08-18T21:44:51.532Z,226.57
2022-08-18T21:47:20.733Z,227.52
2022-08-18T21:50:11.650Z,233.30
2022-08-18T21:52:51.058Z,234.57
2022-08-18T21:55:35.651Z,232.25
2022-08-18T21:58:16.703Z,232.35
2022-08-18T22:01:07.964Z,237.82
2022-08-18T22:03:36.443Z,237.37
2022-08-18T22:06:33.593Z,233.93
2022-08-18T22:09:28.408Z,245.90
2022-08-18T22:12:51.392Z,249.60
2022-08-18T22:15:28.249Z,252.35
2022-08-18T22:18:01.008Z,249.77
2022-08-18T22:20:45.196Z,247.35
2022-08-18T22:23:30.843Z,251.88
2022-08-18T22:26:12.495Z,252.90
2022-08-18T22:29:20.994Z,262.30
2022-08-18T22:31:51.240Z,252.98
2022-08-18T22:34:27.911Z,260.63
2022-08-18T22:37:09.494Z,257.30
2022-08-18T22:39:49.769Z,252.98
2022-08-18T22:42:20.802Z,258.58
2022-08-18T22:44:49.025Z,258.35
2022-08-18T22:47:16.302Z,262.38
2022-08-18T22:49:47.502Z,259.95
2022-08-18T22:52:19.388Z,260.40
2022-08-18T22:54:46.437Z,266.08
2022-08-18T22:57:17.562Z,269.00
2022-08-18T22:59:49.686Z,264.98
2022-08-18T23:02:22.149Z,265.83
2022-08-18T23:04:49.222Z,273.50
2022-08-18T23:07:16.015Z,269.67
2022-08-18T23:09:42.726Z,270.85
2022-08-18T23:12:15.728Z,270.65
2022-08-18T23:14:46.257Z,268.40
2022-08-18T23:17:14.139Z,263.58
2022-08-18T23:19:40.975Z,259.83
2022-08-18T23:22:09.341Z,260.17
2022-08-18T23:24:40.355Z,258.47
2022-08-18T23:27:07.910Z,254.03
2022-08-18T23:29:36.572Z,253.90
2022-08-18T23:32:05.796Z,262.38
2022-08-18T23:34:34.851Z,266.30
2022-08-18T23:37:03.102Z,263.48
2022-08-18T23:39:31.800Z,269.67
2022-08-18T23:41:59.306Z,270.25
2022-08-18T23:44:28.050Z,268.75
2022-08-18T23:46:57.921Z,264.53
2022-08-18T23:49:26.250Z,267.30
2022-08-18T23:51:56.116Z,272.83
2022-08-18T23:54:26.940Z,266.57
2022-08-18T23:56:53.655Z,273.48
2022-08-18T23:59:22.942Z,273.77
